Time;durP1;ratioP1;P1;durP2;ratioP2;P2;SDS_P1;SDS_P2;PMS_P1;PMS_P2;Temp;Humidity;BMP_temperature;BMP_pressure;BME280_temperature;BME280_humidity;BME280_pressure;Samples;Min_cycle;Max_cycle;Signal;HPM_P1;HPM_P2
2022/09/17 00:01:45;;;;;;;13.10;2.80;;;16.40;68.30;;;;;;5107243;28;20229;-93
2022/09/17 00:04:17;;;;;;;11.57;3.00;;;16.40;68.10;;;;;;5104145;28;20209;-94
2022/09/17 00:06:44;;;;;;;12.17;3.47;;;16.40;68.30;;;;;;5107431;28;21178;-91
2022/09/17 00:09:22;;;;;;;10.93;3.23;;;16.40;68.20;;;;;;5105887;28;20255;-91
2022/09/17 00:11:58;;;;;;;15.63;3.57;;;16.40;68.40;;;;;;5105053;28;20224;-92
2022/09/17 00:14:27;;;;;;;10.20;2.87;;;16.40;68.10;;;;;;5106104;28;20320;-94
2022/09/17 00:16:55;;;;;;;15.77;3.73;;;16.50;68.00;;;;;;5107695;28;20211;-94
2022/09/17 00:19:27;;;;;;;15.20;3.17;;;16.40;67.60;;;;;;5105112;28;20211;-93
2022/09/17 00:21:54;;;;;;;11.20;3.27;;;16.40;67.50;;;;;;5099998;28;20205;-91
2022/09/17 00:24:50;;;;;;;13.93;4.23;;;16.40;67.40;;;;;;5105595;28;20209;-92
2022/09/17 00:27:18;;;;;;;13.13;3.30;;;16.40;67.10;;;;;;5106927;28;20202;-93
2022/09/17 00:29:48;;;;;;;12.53;3.00;;;16.40;66.80;;;;;;5102518;28;20235;-92
2022/09/17 00:32:18;;;;;;;10.20;3.00;;;16.40;66.60;;;;;;5103720;28;20682;-92
2022/09/17 00:34:50;;;;;;;20.03;3.77;;;16.50;66.50;;;;;;5105605;28;20205;-92
2022/09/17 00:37:21;;;;;;;11.60;3.63;;;16.50;66.40;;;;;;5105814;28;20236;-92
2022/09/17 00:39:49;;;;;;;17.23;4.20;;;16.50;66.60;;;;;;5103670;28;20231;-93
2022/09/17 00:42:19;;;;;;;21.27;4.07;;;16.50;66.50;;;;;;5103885;28;20623;-93
2022/09/17 00:44:51;;;;;;;13.63;3.47;;;16.50;66.10;;;;;;5106886;28;20200;-93
2022/09/17 00:47:24;;;;;;;11.67;3.70;;;16.50;65.60;;;;;;5106808;28;20643;-92
2022/09/17 00:49:56;;;;;;;17.07;3.70;;;16.50;65.30;;;;;;5109150;28;20207;-93
2022/09/17 00:52:28;;;;;;;14.00;3.53;;;16.50;65.00;;;;;;5109198;28;20223;-92
2022/09/17 00:55:01;;;;;;;13.23;3.33;;;16.50;65.10;;;;;;5107713;28;20556;-93
2022/09/17 00:57:30;;;;;;;18.37;4.67;;;16.50;64.80;;;;;;5104336;28;20290;-94
2022/09/17 00:59:58;;;;;;;12.87;3.40;;;16.50;64.80;;;;;;5103626;28;20229;-93
2022/09/17 01:02:26;;;;;;;12.43;3.10;;;16.50;64.00;;;;;;5107311;28;20212;-93
2022/09/17 01:04:56;;;;;;;15.07;3.73;;;16.50;63.30;;;;;;5108191;28;20265;-94
2022/09/17 01:07:54;;;;;;;18.27;5.00;;;16.50;63.40;;;;;;5106612;28;20641;-90
2022/09/17 01:10:43;;;;;;;13.07;3.43;;;16.50;64.30;;;;;;5106235;28;20611;-93
2022/09/17 01:13:33;;;;;;;19.47;3.97;;;16.60;64.10;;;;;;5105051;28;20565;-93
2022/09/17 01:16:18;;;;;;;16.70;4.00;;;16.60;64.30;;;;;;5108194;28;20411;-89
2022/09/17 01:18:58;;;;;;;14.93;3.30;;;16.60;63.00;;;;;;5109786;28;20237;-94
2022/09/17 01:21:51;;;;;;;10.43;3.00;;;16.60;63.10;;;;;;5108500;28;20220;-93
2022/09/17 01:24:44;;;;;;;14.57;3.07;;;16.60;62.40;;;;;;5106994;28;20293;-92
2022/09/17 01:27:45;;;;;;;12.13;2.80;;;16.60;62.10;;;;;;5106143;28;20286;-94
2022/09/17 01:30:35;;;;;;;10.73;2.70;;;16.60;62.10;;;;;;5107043;28;20293;-94
2022/09/17 01:33:10;;;;;;;12.07;3.07;;;16.60;61.50;;;;;;5112401;28;20901;-93
2022/09/17 01:35:48;;;;;;;12.07;3.00;;;16.70;61.60;;;;;;5114174;28;20196;-92
2022/09/17 01:38:24;;;;;;;17.27;3.70;;;16.70;60.80;;;;;;5121370;28;20219;-94
2022/09/17 01:40:56;;;;;;;11.23;3.17;;;16.60;60.90;;;;;;5127598;27;20216;-92
2022/09/17 01:43:27;;;;;;;12.03;2.77;;;16.60;61.00;;;;;;5125624;28;20195;-93
2022/09/17 01:46:15;;;;;;;14.10;3.83;;;16.60;61.10;;;;;;5122490;28;20222;-93
2022/09/17 01:48:51;;;;;;;12.83;2.80;;;16.60;60.50;;;;;;5122955;28;20225;-91
2022/09/17 01:51:26;;;;;;;11.03;3.00;;;16.60;61.20;;;;;;5113152;28;20235;-93
2022/09/17 01:54:18;;;;;;;11.13;2.77;;;16.60;61.60;;;;;;5106571;28;20198;-92
2022/09/17 01:56:52;;;;;;;9.77;2.67;;;16.60;61.80;;;;;;5111080;28;20577;-94
2022/09/17 01:59:23;;;;;;;17.93;4.10;;;16.60;62.10;;;;;;5105541;28;20210;-92
2022/09/17 02:01:55;;;;;;;15.50;4.17;;;16.60;62.10;;;;;;5106173;28;20236;-92
2022/09/17 02:04:29;;;;;;;10.97;3.13;;;16.60;62.10;;;;;;5101239;28;20289;-93
2022/09/17 02:07:02;;;;;;;12.57;2.80;;;16.60;61.80;;;;;;5107458;28;20603;-91
2022/09/17 02:09:37;;;;;;;13.83;3.13;;;16.60;61.40;;;;;;5102295;28;20555;-93
2022/09/17 02:12:11;;;;;;;20.37;3.20;;;16.60;62.10;;;;;;5103276;28;20228;-91
2022/09/17 02:14:57;;;;;;;15.37;4.23;;;16.60;61.60;;;;;;5110916;27;20178;-93
2022/09/17 02:17:30;;;;;;;15.13;3.43;;;16.50;61.50;;;;;;5114457;28;20252;-93
2022/09/17 02:20:05;;;;;;;11.47;2.90;;;16.60;61.80;;;;;;5105704;28;20244;-93
2022/09/17 02:23:00;;;;;;;8.17;2.27;;;16.50;61.30;;;;;;5113993;28;20198;-91
2022/09/17 02:25:38;;;;;;;11.70;2.70;;;16.50;61.40;;;;;;5106170;28;20196;-94
2022/09/17 02:28:12;;;;;;;14.73;2.93;;;16.60;62.00;;;;;;5105803;28;20194;-90
2022/09/17 02:30:41;;;;;;;11.07;2.70;;;16.50;62.00;;;;;;5106400;28;20273;-92
2022/09/17 02:33:12;;;;;;;11.60;3.57;;;16.50;62.30;;;;;;5102044;28;20666;-93
2022/09/17 02:35:42;;;;;;;9.93;2.90;;;16.50;62.60;;;;;;5105700;28;20198;-92
2022/09/17 02:38:09;;;;;;;12.63;2.57;;;16.50;62.60;;;;;;5106009;28;20202;-92
2022/09/17 02:40:41;;;;;;;10.33;2.87;;;16.50;62.50;;;;;;5110932;28;20218;-93
2022/09/17 02:43:16;;;;;;;13.47;3.17;;;16.50;62.20;;;;;;5113617;27;20200;-92
2022/09/17 02:45:58;;;;;;;9.80;2.70;;;16.50;62.00;;;;;;5137663;22;20228;-92
2022/09/17 02:48:47;;;;;;;13.13;3.00;;;16.50;62.00;;;;;;5086169;28;20291;-92
2022/09/17 02:51:32;;;;;;;13.30;3.30;;;16.50;62.00;;;;;;5086740;28;20211;-92
2022/09/17 02:54:18;;;;;;;11.97;2.80;;;16.50;62.00;;;;;;5085394;28;20583;-92
2022/09/17 02:57:18;;;;;;;9.00;2.77;;;16.50;63.20;;;;;;5086466;28;20610;-94
2022/09/17 02:59:52;;;;;;;17.37;3.63;;;16.40;64.10;;;;;;5085794;28;20206;-92
2022/09/17 03:02:24;;;;;;;12.10;2.73;;;16.50;64.30;;;;;;5085119;28;20261;-93
2022/09/17 03:04:54;;;;;;;14.70;3.80;;;16.40;64.60;;;;;;5087035;28;20335;-94
2022/09/17 03:07:48;;;;;;;18.80;3.50;;;16.40;64.90;;;;;;5086400;28;20205;-92
2022/09/17 03:10:15;;;;;;;9.83;3.03;;;16.40;66.40;;;;;;5087688;28;20203;-92
2022/09/17 03:12:44;;;;;;;11.77;3.63;;;16.40;66.00;;;;;;5087513;28;20287;-92
2022/09/17 03:15:22;;;;;;;13.97;3.60;;;16.40;66.40;;;;;;5081768;28;20275;-92
2022/09/17 03:20:21;;;;;;;8.67;3.13;;;16.40;66.20;;;;;;5059819;28;20233;-91
2022/09/17 03:22:51;;;;;;;10.47;3.17;;;16.30;66.20;;;;;;5060786;28;20255;-92
2022/09/17 03:25:19;;;;;;;11.60;3.20;;;16.30;66.70;;;;;;5062826;28;20260;-91
2022/09/17 03:27:48;;;;;;;9.60;3.17;;;16.30;66.60;;;;;;5059683;28;20291;-91
2022/09/17 03:30:22;;;;;;;17.67;3.07;;;16.30;66.60;;;;;;5067698;28;20201;-91
2022/09/17 03:32:49;;;;;;;14.97;3.37;;;16.30;66.60;;;;;;5068645;28;20285;-91
2022/09/17 03:35:16;;;;;;;9.57;2.93;;;16.20;66.50;;;;;;5060800;28;20236;-91
2022/09/17 03:37:52;;;;;;;10.63;2.63;;;16.30;66.60;;;;;;5059758;28;20487;-92
2022/09/17 03:40:19;;;;;;;17.27;4.17;;;16.30;66.70;;;;;;5061210;28;20200;-91
2022/09/17 03:42:49;;;;;;;11.43;2.97;;;16.20;66.70;;;;;;5059119;28;20239;-93
2022/09/17 03:45:16;;;;;;;9.30;2.03;;;16.20;66.60;;;;;;5058976;28;20295;-93
2022/09/17 03:47:43;;;;;;;14.70;3.53;;;16.20;67.30;;;;;;5061125;28;20296;-94
2022/09/17 03:50:10;;;;;;;7.27;2.77;;;16.10;66.50;;;;;;5066456;28;20215;-92
2022/09/17 03:52:44;;;;;;;8.40;2.30;;;16.10;66.70;;;;;;5061980;28;20295;-92
2022/09/17 03:55:17;;;;;;;12.07;3.17;;;16.10;67.10;;;;;;5058094;28;20268;-92
2022/09/17 03:57:46;;;;;;;14.77;3.27;;;16.00;68.00;;;;;;5062151;28;20200;-91
2022/09/17 04:00:16;;;;;;;13.00;3.80;;;16.00;67.70;;;;;;5062097;28;20207;-96
2022/09/17 04:02:44;;;;;;;9.97;2.83;;;16.00;68.10;;;;;;5067585;28;20500;-93
2022/09/17 04:05:17;;;;;;;21.37;5.43;;;15.90;68.10;;;;;;5062323;28;20212;-92
2022/09/17 04:08:01;;;;;;;11.17;2.60;;;15.90;68.90;;;;;;5061821;28;20206;-91
2022/09/17 04:10:31;;;;;;;11.23;3.60;;;15.90;69.00;;;;;;5058561;28;20256;-92
2022/09/17 04:12:59;;;;;;;9.37;2.43;;;15.90;69.00;;;;;;5054048;28;20724;-92
2022/09/17 04:15:26;;;;;;;14.93;3.03;;;15.90;69.10;;;;;;5057293;28;20196;-92
2022/09/17 04:17:57;;;;;;;13.17;3.60;;;15.90;69.20;;;;;;5056282;28;20625;-91
2022/09/17 04:20:26;;;;;;;16.43;4.10;;;15.80;69.60;;;;;;5052650;28;20213;-92
2022/09/17 04:22:55;;;;;;;10.67;2.40;;;15.90;69.50;;;;;;5056653;28;20230;-92
2022/09/17 04:25:23;;;;;;;12.70;2.90;;;15.90;69.60;;;;;;5061515;28;20326;-92
2022/09/17 04:27:52;;;;;;;11.40;2.73;;;15.80;69.30;;;;;;5062700;28;20984;-93
2022/09/17 04:30:19;;;;;;;19.97;4.83;;;15.90;69.50;;;;;;5054969;28;20231;-94
2022/09/17 04:32:49;;;;;;;7.07;2.27;;;15.90;69.20;;;;;;5060706;28;20245;-94
2022/09/17 04:35:16;;;;;;;17.93;3.70;;;15.90;69.10;;;;;;5059378;28;20209;-94
2022/09/17 04:37:43;;;;;;;19.20;5.23;;;15.80;68.80;;;;;;5062450;28;20208;-94
2022/09/17 04:40:18;;;;;;;12.63;3.37;;;15.80;68.70;;;;;;5061595;28;20598;-91
2022/09/17 04:42:46;;;;;;;18.30;5.23;;;15.80;68.80;;;;;;5059065;28;20214;-94
2022/09/17 04:45:32;;;;;;;18.67;3.60;;;15.80;68.70;;;;;;5061862;28;20205;-94
2022/09/17 04:48:12;;;;;;;16.00;3.90;;;15.80;68.80;;;;;;5055806;28;20210;-93
2022/09/17 04:50:45;;;;;;;11.57;3.27;;;15.80;68.70;;;;;;5056542;28;20229;-93
2022/09/17 04:53:15;;;;;;;9.20;2.13;;;15.80;68.70;;;;;;5062769;28;20580;-91
2022/09/17 04:55:43;;;;;;;12.17;2.30;;;15.90;68.90;;;;;;5063330;28;20196;-93
2022/09/17 04:58:11;;;;;;;15.97;4.47;;;15.80;69.10;;;;;;5060680;28;20212;-95
2022/09/17 05:00:42;;;;;;;11.37;3.00;;;15.80;69.30;;;;;;5061786;28;20205;-95
2022/09/17 05:03:10;;;;;;;10.23;2.53;;;15.80;69.80;;;;;;5059825;28;20616;-94
2022/09/17 05:05:40;;;;;;;20.70;5.10;;;15.90;70.10;;;;;;5062480;28;20224;-92
2022/09/17 05:08:30;;;;;;;12.03;2.57;;;15.90;70.30;;;;;;5062681;28;20205;-93
2022/09/17 05:11:03;;;;;;;10.17;2.73;;;15.90;71.30;;;;;;5060373;28;20201;-96
2022/09/17 05:13:33;;;;;;;7.00;2.47;;;15.90;71.10;;;;;;5066621;28;20200;-93
2022/09/17 05:16:02;;;;;;;14.00;2.80;;;15.90;70.80;;;;;;5059141;28;20652;-94
2022/09/17 05:18:29;;;;;;;14.80;3.83;;;15.90;70.80;;;;;;5054972;28;20227;-94
2022/09/17 05:20:56;;;;;;;12.10;3.23;;;16.00;70.80;;;;;;5055833;28;20293;-90
2022/09/17 05:23:29;;;;;;;13.00;3.00;;;16.00;70.90;;;;;;5052878;28;20660;-90
2022/09/17 05:25:59;;;;;;;15.00;4.33;;;16.00;71.30;;;;;;5060185;28;20209;-91
2022/09/17 05:28:26;;;;;;;14.87;3.97;;;16.00;71.10;;;;;;5076461;28;20181;-90
2022/09/17 05:30:53;;;;;;;14.63;3.27;;;16.00;70.70;;;;;;5077381;28;20230;-91
2022/09/17 05:33:21;;;;;;;10.03;2.13;;;16.10;70.40;;;;;;5075419;28;20280;-91
2022/09/17 05:35:50;;;;;;;12.80;3.00;;;16.10;70.10;;;;;;5068293;28;20206;-92
2022/09/17 05:38:18;;;;;;;11.00;2.50;;;16.00;69.90;;;;;;5069796;28;20196;-92
2022/09/17 05:40:47;;;;;;;5.30;1.57;;;16.10;70.00;;;;;;5066257;28;20196;-91
2022/09/17 05:43:15;;;;;;;15.40;2.83;;;16.00;69.90;;;;;;5064680;28;20247;-92
2022/09/17 05:45:42;;;;;;;15.20;4.40;;;16.10;70.00;;;;;;5056421;28;20235;-90
2022/09/17 05:48:12;;;;;;;15.27;3.50;;;16.10;70.80;;;;;;5058266;28;20303;-91
2022/09/17 05:50:45;;;;;;;16.27;2.93;;;16.10;70.20;;;;;;5072867;28;20194;-89
2022/09/17 05:53:13;;;;;;;12.20;3.40;;;16.10;70.20;;;;;;5071149;28;20203;-88
2022/09/17 05:55:41;;;;;;;7.80;2.47;;;16.10;70.00;;;;;;5066837;28;20236;-91
2022/09/17 05:58:12;;;;;;;16.87;4.87;;;16.10;69.10;;;;;;5061587;28;20645;-89
2022/09/17 06:00:39;;;;;;;9.63;2.87;;;16.10;68.50;;;;;;5061383;28;20666;-90
2022/09/17 06:03:06;;;;;;;15.77;4.57;;;16.00;68.40;;;;;;5058670;28;20250;-91
2022/09/17 06:05:34;;;;;;;9.97;2.90;;;16.00;68.30;;;;;;5055540;28;20232;-91
2022/09/17 06:08:04;;;;;;;12.93;2.70;;;16.00;68.40;;;;;;5062022;28;20231;-93
2022/09/17 06:10:31;;;;;;;7.97;1.90;;;16.00;68.30;;;;;;5062616;28;20295;-91
2022/09/17 06:13:01;;;;;;;10.37;2.00;;;16.00;68.40;;;;;;5062127;28;20779;-91
2022/09/17 06:15:28;;;;;;;13.33;2.77;;;16.00;68.40;;;;;;5061057;28;20218;-90
2022/09/17 06:17:56;;;;;;;16.93;4.63;;;16.00;68.30;;;;;;5060460;28;20239;-91
2022/09/17 06:20:23;;;;;;;7.53;2.20;;;16.00;68.30;;;;;;5065429;28;20298;-92
2022/09/17 06:22:56;;;;;;;16.13;4.57;;;16.00;68.30;;;;;;5061723;28;20290;-91
2022/09/17 06:25:32;;;;;;;7.17;2.23;;;16.00;68.70;;;;;;5060560;28;20199;-92
2022/09/17 06:28:01;;;;;;;16.67;4.47;;;16.00;68.90;;;;;;5056998;28;20219;-91
2022/09/17 06:30:28;;;;;;;22.57;5.63;;;15.90;68.90;;;;;;5057705;28;20204;-91
2022/09/17 06:33:00;;;;;;;15.87;3.23;;;16.00;69.10;;;;;;5057748;28;20567;-90
2022/09/17 06:35:28;;;;;;;15.40;3.03;;;16.00;69.90;;;;;;5054561;28;20217;-92
2022/09/17 06:37:55;;;;;;;10.13;3.23;;;16.00;69.90;;;;;;5059098;28;20307;-89
2022/09/17 06:40:22;;;;;;;13.93;4.33;;;16.00;70.10;;;;;;5051103;28;20258;-91
2022/09/17 06:42:59;;;;;;;10.93;2.77;;;16.00;70.40;;;;;;5059966;28;20239;-91
2022/09/17 06:45:26;;;;;;;18.20;4.03;;;16.00;70.30;;;;;;5054331;28;20274;-89
2022/09/17 06:47:53;;;;;;;8.60;2.77;;;16.10;70.00;;;;;;5053504;28;20293;-90
2022/09/17 06:50:23;;;;;;;10.83;3.33;;;16.10;70.10;;;;;;5042323;28;20931;-85
2022/09/17 06:52:53;;;;;;;19.47;3.23;;;16.10;70.50;;;;;;5033453;28;20207;-91
2022/09/17 06:55:20;;;;;;;13.13;4.00;;;16.10;70.50;;;;;;5050740;28;20964;-90
2022/09/17 06:57:48;;;;;;;13.70;3.03;;;16.20;70.10;;;;;;5051076;28;20230;-91
2022/09/17 07:00:16;;;;;;;14.27;3.40;;;16.20;69.70;;;;;;5051700;28;20949;-91
2022/09/17 07:02:43;;;;;;;11.90;2.87;;;16.20;69.60;;;;;;5053146;28;20269;-90
2022/09/17 07:05:10;;;;;;;14.67;3.33;;;16.30;70.10;;;;;;5045603;28;20206;-87
2022/09/17 07:07:39;;;;;;;15.53;4.37;;;16.30;70.30;;;;;;5037883;28;20669;-91
2022/09/17 07:10:07;;;;;;;8.00;2.27;;;16.30;70.70;;;;;;5048760;28;20240;-91
2022/09/17 07:15:22;;;;;;;10.77;2.70;;;16.30;70.60;;;;;;5044223;28;20205;-90
2022/09/17 07:17:57;;;;;;;10.93;2.93;;;16.30;71.20;;;;;;5057844;28;20682;-92
2022/09/17 07:20:27;;;;;;;17.33;4.40;;;16.30;71.50;;;;;;5056174;28;20656;-90
2022/09/17 07:23:00;;;;;;;7.67;1.90;;;16.30;71.50;;;;;;5054625;28;20223;-93
2022/09/17 07:25:27;;;;;;;10.87;2.77;;;16.30;72.10;;;;;;5054596;28;20206;-93
2022/09/17 07:30:51;;;;;;;12.07;3.33;;;16.30;72.90;;;;;;5046820;28;20231;-90
2022/09/17 07:33:23;;;;;;;14.27;4.27;;;16.30;72.30;;;;;;5044165;28;20293;-90
2022/09/17 07:36:13;;;;;;;7.37;2.30;;;16.30;72.60;;;;;;5048945;28;20206;-96
2022/09/17 07:38:41;;;;;;;16.30;3.43;;;16.30;73.00;;;;;;5040672;28;20939;-92
2022/09/17 07:41:14;;;;;;;18.30;5.20;;;16.30;72.90;;;;;;5050446;28;20567;-94
2022/09/17 07:43:42;;;;;;;15.03;4.40;;;16.40;73.10;;;;;;5054001;28;20235;-92
2022/09/17 07:46:16;;;;;;;20.27;5.10;;;16.40;72.50;;;;;;5035385;28;20239;-92
2022/09/17 07:48:46;;;;;;;12.77;3.43;;;16.40;72.10;;;;;;5056721;28;20299;-90
2022/09/17 07:51:17;;;;;;;15.10;3.77;;;16.40;71.70;;;;;;5056101;28;20208;-95
2022/09/17 07:53:51;;;;;;;10.73;2.97;;;16.50;71.40;;;;;;5061483;28;20195;-96
2022/09/17 07:56:27;;;;;;;11.93;3.03;;;16.50;71.90;;;;;;5055616;28;20236;-96
2022/09/17 07:59:07;;;;;;;12.07;3.17;;;16.50;72.10;;;;;;5060368;28;20239;-96
2022/09/17 08:01:36;;;;;;;6.30;2.10;;;16.50;71.90;;;;;;5054192;28;20282;-96
2022/09/17 08:04:04;;;;;;;15.73;3.80;;;16.50;71.80;;;;;;5040219;28;20224;-92
2022/09/17 08:06:41;;;;;;;17.17;4.67;;;16.60;71.60;;;;;;5044387;28;20304;-96
2022/09/17 08:09:09;;;;;;;18.87;5.00;;;16.60;71.80;;;;;;5045988;28;20275;-96
2022/09/17 08:11:41;;;;;;;15.47;4.23;;;16.60;71.40;;;;;;5055621;28;20297;-96
2022/09/17 08:14:50;;;;;;;8.40;2.70;;;16.60;71.30;;;;;;5049325;28;20243;-96
2022/09/17 08:17:52;;;;;;;13.93;3.50;;;16.60;71.80;;;;;;5048926;28;20240;-95
2022/09/17 08:20:54;;;;;;;19.33;4.47;;;16.60;71.60;;;;;;5057878;28;20209;-96
2022/09/17 08:23:31;;;;;;;11.03;2.67;;;16.60;71.90;;;;;;5052739;28;20276;-96
2022/09/17 08:26:02;;;;;;;12.57;3.70;;;16.60;71.60;;;;;;5059517;28;20280;-94
2022/09/17 08:29:13;;;;;;;11.40;3.53;;;16.70;71.40;;;;;;5283653;22;20257;-96
2022/09/17 08:35:15;;;;;;;12.73;3.40;;;16.70;71.20;;;;;;5086772;28;20275;-95
2022/09/17 08:37:48;;;;;;;10.87;3.27;;;16.80;71.70;;;;;;5107875;28;20195;-96
2022/09/17 08:43:25;;;;;;;8.10;2.67;;;16.90;71.30;;;;;;5072582;28;20280;-96
2022/09/17 08:46:12;;;;;;;16.77;3.00;;;17.00;70.60;;;;;;5105167;28;20207;-96
2022/09/17 08:48:43;;;;;;;15.97;4.40;;;17.10;70.10;;;;;;5091351;28;20211;-96
2022/09/17 08:52:03;;;;;;;7.07;2.17;;;17.20;70.50;;;;;;5105898;28;20211;-93
2022/09/17 08:54:48;;;;;;;10.63;3.03;;;17.40;70.50;;;;;;5082505;28;20218;-95
2022/09/17 08:57:25;;;;;;;9.00;2.70;;;17.60;69.60;;;;;;5093271;28;20208;-94
2022/09/17 09:00:00;;;;;;;10.67;2.43;;;17.80;69.00;;;;;;5096644;28;20223;-95
2022/09/17 09:03:16;;;;;;;9.87;2.77;;;18.00;68.60;;;;;;5100338;28;20201;-95
2022/09/17 09:05:47;;;;;;;13.80;4.37;;;18.20;66.70;;;;;;5100031;28;20647;-95
2022/09/17 09:08:56;;;;;;;7.40;1.93;;;18.40;66.30;;;;;;5103145;28;20237;-96
2022/09/17 09:11:31;;;;;;;6.07;1.67;;;18.60;66.40;;;;;;5099553;28;20187;-94
2022/09/17 09:14:13;;;;;;;12.33;3.23;;;18.80;66.60;;;;;;5102821;28;20210;-96
2022/09/17 09:16:45;;;;;;;12.37;3.10;;;18.90;65.80;;;;;;5105701;28;20220;-92
2022/09/17 09:19:48;;;;;;;13.40;3.17;;;19.10;64.80;;;;;;5084991;28;20204;-94
2022/09/17 09:22:34;;;;;;;9.67;3.00;;;19.20;64.50;;;;;;5068869;28;20189;-96
2022/09/17 09:25:17;;;;;;;16.47;3.97;;;19.30;63.70;;;;;;5095733;28;20198;-94
2022/09/17 09:27:52;;;;;;;7.50;2.43;;;19.30;62.20;;;;;;5098276;28;20553;-95
2022/09/17 09:30:22;;;;;;;13.73;4.30;;;19.30;62.40;;;;;;5114554;28;20190;-96
2022/09/17 09:32:59;;;;;;;6.10;1.77;;;19.30;62.10;;;;;;5119207;28;20231;-95
2022/09/17 09:36:05;;;;;;;9.00;2.37;;;19.40;61.80;;;;;;5104375;28;20650;-91
2022/09/17 09:38:43;;;;;;;7.73;2.03;;;19.40;62.20;;;;;;5106280;28;20206;-95
2022/09/17 09:41:14;;;;;;;8.40;2.00;;;19.40;61.20;;;;;;5098830;28;20207;-93
2022/09/17 09:44:07;;;;;;;10.80;2.63;;;19.40;61.70;;;;;;5108367;28;20229;-95
2022/09/17 09:47:23;;;;;;;11.03;3.53;;;19.40;61.20;;;;;;5102691;28;20270;-96
2022/09/17 09:50:15;;;;;;;8.43;2.03;;;19.40;61.60;;;;;;5088878;28;20225;-94
2022/09/17 09:53:06;;;;;;;11.13;3.07;;;19.30;61.60;;;;;;5103501;28;20216;-92
2022/09/17 09:56:04;;;;;;;10.73;3.23;;;19.40;61.80;;;;;;5104137;28;20228;-93
2022/09/17 09:58:38;;;;;;;10.93;3.43;;;19.30;61.50;;;;;;5068644;28;20239;-92
2022/09/17 10:05:11;;;;;;;10.23;2.67;;;19.40;62.30;;;;;;5106064;22;20312;-94
2022/09/17 10:07:54;;;;;;;10.03;3.30;;;19.50;61.60;;;;;;5074337;28;20208;-95
2022/09/17 10:10:25;;;;;;;10.83;3.57;;;19.40;61.20;;;;;;5097976;28;20202;-92
2022/09/17 10:13:24;;;;;;;7.67;2.23;;;19.50;61.40;;;;;;5099192;28;20231;-95
2022/09/17 10:19:25;;;;;;;8.63;2.83;;;19.40;62.20;;;;;;5080126;28;20196;-93
2022/09/17 10:22:39;;;;;;;13.60;2.87;;;19.40;62.20;;;;;;5109603;28;20225;-96
2022/09/17 10:25:30;;;;;;;12.00;3.10;;;19.40;62.40;;;;;;5096892;28;20207;-94
2022/09/17 10:28:23;;;;;;;15.47;3.53;;;19.40;62.20;;;;;;5070970;28;20210;-93
2022/09/17 10:30:58;;;;;;;12.27;3.23;;;19.40;62.40;;;;;;5093452;28;20203;-92
2022/09/17 10:33:35;;;;;;;12.97;3.27;;;19.40;63.80;;;;;;5070432;28;20206;-90
2022/09/17 10:36:08;;;;;;;7.80;2.70;;;19.40;62.50;;;;;;5083001;28;20219;-91
2022/09/17 10:38:44;;;;;;;12.17;3.17;;;19.40;62.70;;;;;;5079512;28;20226;-93
2022/09/17 10:41:48;;;;;;;7.60;2.07;;;19.50;62.60;;;;;;5077803;28;20226;-95
2022/09/17 10:44:26;;;;;;;7.70;2.57;;;19.60;62.30;;;;;;5044840;28;20710;-92
2022/09/17 10:47:12;;;;;;;9.10;2.43;;;19.70;61.60;;;;;;5078111;28;20233;-93
2022/09/17 10:49:47;;;;;;;9.17;2.70;;;19.80;60.10;;;;;;5076606;28;20195;-95
2022/09/17 10:52:24;;;;;;;9.93;2.97;;;19.90;60.10;;;;;;5075864;28;20290;-91
2022/09/17 10:55:27;;;;;;;17.27;3.53;;;20.00;61.10;;;;;;5075561;28;20247;-93
2022/09/17 10:58:13;;;;;;;10.50;3.23;;;20.10;60.10;;;;;;5075028;28;20203;-90
2022/09/17 11:01:01;;;;;;;10.20;3.60;;;20.30;60.20;;;;;;5060577;28;20216;-91
2022/09/17 11:04:00;;;;;;;14.07;3.93;;;20.40;58.60;;;;;;5091728;28;20233;-94
2022/09/17 11:06:51;;;;;;;12.23;2.97;;;20.50;58.90;;;;;;5056300;28;20192;-93
2022/09/17 11:09:36;;;;;;;10.47;3.17;;;20.50;58.70;;;;;;5063633;28;20261;-93
2022/09/17 11:12:26;;;;;;;15.53;3.47;;;20.60;58.80;;;;;;5075648;28;20198;-94
2022/09/17 11:15:04;;;;;;;13.83;2.87;;;20.60;59.00;;;;;;5076101;28;20332;-91
2022/09/17 11:17:58;;;;;;;14.50;3.67;;;20.60;60.00;;;;;;5074841;28;20240;-92
2022/09/17 11:20:44;;;;;;;13.33;3.27;;;20.70;59.20;;;;;;5073433;28;20207;-93
2022/09/17 11:23:37;;;;;;;;;;;;;;;;;;;;;
2022/09/17 11:26:12;;;;;;;12.70;3.13;;;20.80;58.50;;;;;;5053656;28;20556;-93
2022/09/17 11:29:03;;;;;;;10.70;3.30;;;20.90;58.70;;;;;;5073605;28;20211;-91
2022/09/17 11:31:40;;;;;;;12.07;3.87;;;21.00;57.70;;;;;;5074548;28;20203;-94
2022/09/17 11:34:29;;;;;;;10.43;3.63;;;21.00;56.70;;;;;;5075635;28;20200;-91
2022/09/17 11:37:04;;;;;;;13.37;3.03;;;21.10;58.20;;;;;;5073338;28;20200;-93
2022/09/17 11:39:40;;;;;;;10.23;3.50;;;21.20;58.00;;;;;;5074350;28;20256;-94
2022/09/17 11:42:22;;;;;;;7.93;2.40;;;21.30;58.60;;;;;;5074308;28;20240;-92
2022/09/17 11:44:54;;;;;;;12.17;3.27;;;21.40;57.70;;;;;;5074048;28;20291;-92
2022/09/17 11:47:45;;;;;;;9.33;2.93;;;21.50;59.40;;;;;;5074879;28;20644;-92
2022/09/17 11:50:21;;;;;;;10.87;2.93;;;21.50;59.00;;;;;;5075457;28;20254;-90
2022/09/17 11:53:03;;;;;;;12.83;3.87;;;21.50;59.00;;;;;;5075078;28;20210;-91
2022/09/17 11:55:35;;;;;;;9.40;2.73;;;21.50;58.50;;;;;;5076561;28;20290;-93
2022/09/17 11:58:17;;;;;;;12.50;3.70;;;21.50;58.00;;;;;;5075406;28;20207;-94
2022/09/17 12:00:51;;;;;;;11.37;3.87;;;21.30;58.50;;;;;;5075065;28;20226;-92
2022/09/17 12:06:39;;;;;;;11.27;2.63;;;21.10;59.50;;;;;;5066904;28;20300;-92
2022/09/17 12:09:17;;;;;;;10.87;2.30;;;21.10;58.80;;;;;;5076635;28;20207;-94
2022/09/17 12:11:51;;;;;;;11.27;3.93;;;21.10;59.00;;;;;;5096755;28;20290;-93
2022/09/17 12:14:28;;;;;;;9.90;2.67;;;21.20;59.50;;;;;;5079340;28;20212;-92
2022/09/17 12:16:59;;;;;;;7.33;2.60;;;21.20;59.30;;;;;;5077760;28;20222;-94
2022/09/17 12:19:34;;;;;;;13.40;3.63;;;21.30;59.50;;;;;;5078287;28;20271;-94
2022/09/17 12:22:09;;;;;;;11.67;3.67;;;21.50;59.40;;;;;;5079248;28;20214;-93
2022/09/17 12:24:52;;;;;;;13.63;3.47;;;21.60;59.00;;;;;;5085318;28;20261;-90
2022/09/17 12:27:33;;;;;;;6.77;2.37;;;21.70;59.20;;;;;;5083628;28;20219;-93
2022/09/17 12:30:14;;;;;;;10.87;3.43;;;22.00;58.60;;;;;;5080316;28;20207;-94
2022/09/17 12:33:05;;;;;;;8.17;2.50;;;22.20;58.30;;;;;;5081435;28;20942;-95
2022/09/17 12:35:58;;;;;;;10.23;3.43;;;22.30;57.50;;;;;;5079385;28;20335;-96
2022/09/17 12:39:07;;;;;;;8.43;2.80;;;22.50;57.20;;;;;;5089140;28;20205;-96
2022/09/17 12:41:57;;;;;;;7.67;2.63;;;22.60;57.30;;;;;;5052728;28;20264;-96
2022/09/17 12:44:51;;;;;;;8.53;3.10;;;22.70;58.80;;;;;;5093245;28;20231;-94
2022/09/17 12:47:49;;;;;;;7.17;2.23;;;22.60;58.90;;;;;;5093435;28;20730;-96
2022/09/17 12:50:29;;;;;;;7.20;2.50;;;22.50;58.90;;;;;;5087817;28;20686;-94
2022/09/17 12:53:14;;;;;;;8.67;2.67;;;22.40;59.10;;;;;;5085848;28;20202;-96
2022/09/17 12:56:00;;;;;;;9.03;2.57;;;22.30;59.00;;;;;;5081390;28;20195;-96
2022/09/17 13:05:49;;;;;;;7.87;2.63;;;21.80;60.40;;;;;;5125400;28;20288;-96
2022/09/17 13:09:03;;;;;;;8.80;2.50;;;21.70;59.90;;;;;;5114032;28;20269;-96
2022/09/17 13:12:12;;;;;;;7.23;1.93;;;21.60;59.80;;;;;;5052520;28;20240;-95
2022/09/17 13:15:01;;;;;;;13.13;3.20;;;21.60;60.90;;;;;;5075395;28;20229;-93
2022/09/17 13:17:38;;;;;;;8.43;3.30;;;21.50;59.80;;;;;;5071266;28;20219;-93
2022/09/17 13:20:15;;;;;;;10.07;3.03;;;21.40;59.70;;;;;;5070729;28;20242;-93
2022/09/17 13:22:46;;;;;;;8.50;3.03;;;21.30;59.80;;;;;;5083576;28;20244;-95
2022/09/17 13:25:16;;;;;;;11.63;3.10;;;21.20;60.20;;;;;;5091708;28;20214;-89
2022/09/17 13:28:16;;;;;;;11.93;3.60;;;21.10;60.30;;;;;;5089770;28;20211;-94
2022/09/17 13:31:26;;;;;;;7.33;2.27;;;21.00;60.70;;;;;;5080057;28;20203;-94
2022/09/17 13:33:59;;;;;;;9.67;3.20;;;20.90;60.90;;;;;;5078213;28;20432;-92
2022/09/17 13:36:45;;;;;;;8.97;2.37;;;20.70;60.90;;;;;;5076204;28;20261;-95
2022/09/17 13:39:52;;;;;;;13.17;3.80;;;20.60;61.50;;;;;;5089882;28;20214;-91
2022/09/17 13:42:27;;;;;;;13.30;4.33;;;20.50;62.90;;;;;;5090441;28;20180;-92
2022/09/17 13:45:25;;;;;;;12.07;2.67;;;20.40;63.10;;;;;;5080976;28;20647;-93
2022/09/17 13:48:04;;;;;;;6.63;1.90;;;20.40;64.30;;;;;;5081107;28;20200;-93
2022/09/17 13:50:49;;;;;;;6.80;2.17;;;20.40;64.20;;;;;;5078113;28;20283;-96
2022/09/17 13:53:42;;;;;;;13.37;3.17;;;20.40;62.50;;;;;;5077949;28;20231;-96
2022/09/17 13:56:32;;;;;;;7.23;2.40;;;20.50;62.10;;;;;;5077106;28;20207;-95
2022/09/17 13:59:42;;;;;;;11.13;2.53;;;20.50;62.10;;;;;;5080973;28;20200;-96
2022/09/17 14:02:37;;;;;;;9.07;2.83;;;20.50;62.60;;;;;;5078934;28;20215;-95
2022/09/17 14:08:48;;;;;;;12.10;2.77;;;20.50;61.70;;;;;;5067385;28;20297;-94
2022/09/17 14:11:46;;;;;;;9.13;3.00;;;20.50;61.20;;;;;;5091508;28;20268;-96